sensor_id;sensor_type;location;lat;lon;timestamp;P1;durP1;ratioP1;P2;durP2;ratioP2
69532;SDS011;56729;52.036;5.332;2024-02-04T00:00:41;68.00;;;22.63;;
69532;SDS011;56729;52.036;5.332;2024-02-04T00:01:44;109.93;;;27.05;;
69532;SDS011;56729;52.036;5.332;2024-02-04T00:02:46;71.68;;;22.35;;
69532;SDS011;56729;52.036;5.332;2024-02-04T00:03:48;110.13;;;26.25;;
69532;SDS011;56729;52.036;5.332;2024-02-04T00:04:53;101.35;;;24.77;;
69532;SDS011;56729;52.036;5.332;2024-02-04T00:05:55;103.80;;;24.88;;
69532;SDS011;56729;52.036;5.332;2024-02-04T00:06:57;133.02;;;27.10;;
69532;SDS011;56729;52.036;5.332;2024-02-04T00:08:00;80.80;;;25.42;;
69532;SDS011;56729;52.036;5.332;2024-02-04T00:09:03;137.63;;;29.00;;
69532;SDS011;56729;52.036;5.332;2024-02-04T00:10:06;186.80;;;31.60;;
69532;SDS011;56729;52.036;5.332;2024-02-04T00:11:08;151.40;;;31.58;;
69532;SDS011;56729;52.036;5.332;2024-02-04T00:12:13;133.50;;;30.73;;
69532;SDS011;56729;52.036;5.332;2024-02-04T00:13:15;83.35;;;22.95;;
69532;SDS011;56729;52.036;5.332;2024-02-04T00:14:17;88.22;;;26.95;;
69532;SDS011;56729;52.036;5.332;2024-02-04T00:15:19;139.15;;;27.70;;
69532;SDS011;56729;52.036;5.332;2024-02-04T00:16:21;114.70;;;26.00;;
69532;SDS011;56729;52.036;5.332;2024-02-04T00:17:23;130.93;;;29.85;;
69532;SDS011;56729;52.036;5.332;2024-02-04T00:18:31;78.45;;;22.00;;
69532;SDS011;56729;52.036;5.332;2024-02-04T00:19:34;112.35;;;25.45;;
69532;SDS011;56729;52.036;5.332;2024-02-04T00:20:36;172.13;;;35.08;;
69532;SDS011;56729;52.036;5.332;2024-02-04T00:21:38;179.15;;;30.63;;
69532;SDS011;56729;52.036;5.332;2024-02-04T00:22:40;118.22;;;27.85;;
69532;SDS011;56729;52.036;5.332;2024-02-04T00:23:42;114.72;;;29.02;;
69532;SDS011;56729;52.036;5.332;2024-02-04T00:24:44;150.43;;;30.80;;
69532;SDS011;56729;52.036;5.332;2024-02-04T00:25:46;166.25;;;32.47;;
69532;SDS011;56729;52.036;5.332;2024-02-04T00:26:48;99.05;;;26.08;;
69532;SDS011;56729;52.036;5.332;2024-02-04T00:27:50;151.38;;;29.58;;
69532;SDS011;56729;52.036;5.332;2024-02-04T00:28:52;109.22;;;27.10;;
69532;SDS011;56729;52.036;5.332;2024-02-04T00:29:55;99.78;;;30.98;;
69532;SDS011;56729;52.036;5.332;2024-02-04T00:30:57;99.90;;;28.38;;
69532;SDS011;56729;52.036;5.332;2024-02-04T00:32:00;94.68;;;28.65;;
69532;SDS011;56729;52.036;5.332;2024-02-04T00:33:03;90.43;;;30.52;;
69532;SDS011;56729;52.036;5.332;2024-02-04T00:34:06;76.40;;;23.27;;
69532;SDS011;56729;52.036;5.332;2024-02-04T00:35:08;153.45;;;37.97;;
69532;SDS011;56729;52.036;5.332;2024-02-04T00:36:10;185.77;;;33.72;;
69532;SDS011;56729;52.036;5.332;2024-02-04T00:37:12;107.47;;;27.20;;
69532;SDS011;56729;52.036;5.332;2024-02-04T00:38:14;102.00;;;27.00;;
69532;SDS011;56729;52.036;5.332;2024-02-04T00:39:16;115.35;;;30.20;;
69532;SDS011;56729;52.036;5.332;2024-02-04T00:40:18;134.30;;;28.92;;
69532;SDS011;56729;52.036;5.332;2024-02-04T00:41:20;121.25;;;29.40;;
69532;SDS011;56729;52.036;5.332;2024-02-04T00:42:22;161.32;;;31.45;;
69532;SDS011;56729;52.036;5.332;2024-02-04T00:43:24;122.43;;;29.03;;
69532;SDS011;56729;52.036;5.332;2024-02-04T00:44:26;74.53;;;21.48;;
69532;SDS011;56729;52.036;5.332;2024-02-04T00:45:28;134.07;;;26.95;;
69532;SDS011;56729;52.036;5.332;2024-02-04T00:46:30;105.47;;;25.67;;
69532;SDS011;56729;52.036;5.332;2024-02-04T00:47:32;97.90;;;24.52;;
69532;SDS011;56729;52.036;5.332;2024-02-04T00:48:34;124.68;;;30.40;;
69532;SDS011;56729;52.036;5.332;2024-02-04T00:49:36;114.38;;;28.60;;
69532;SDS011;56729;52.036;5.332;2024-02-04T00:50:38;110.18;;;25.88;;
69532;SDS011;56729;52.036;5.332;2024-02-04T00:51:40;78.05;;;22.95;;
69532;SDS011;56729;52.036;5.332;2024-02-04T00:52:43;96.05;;;24.40;;
69532;SDS011;56729;52.036;5.332;2024-02-04T00:53:45;103.43;;;25.03;;
69532;SDS011;56729;52.036;5.332;2024-02-04T00:54:47;116.28;;;24.60;;
69532;SDS011;56729;52.036;5.332;2024-02-04T00:55:50;155.80;;;27.13;;
69532;SDS011;56729;52.036;5.332;2024-02-04T00:56:51;80.30;;;22.98;;
69532;SDS011;56729;52.036;5.332;2024-02-04T00:57:54;94.07;;;22.00;;
69532;SDS011;56729;52.036;5.332;2024-02-04T00:58:57;133.20;;;24.63;;
69532;SDS011;56729;52.036;5.332;2024-02-04T01:00:02;95.45;;;22.90;;
69532;SDS011;56729;52.036;5.332;2024-02-04T01:01:05;79.82;;;20.38;;
69532;SDS011;56729;52.036;5.332;2024-02-04T01:02:07;121.03;;;24.88;;
69532;SDS011;56729;52.036;5.332;2024-02-04T01:03:09;79.13;;;20.33;;
69532;SDS011;56729;52.036;5.332;2024-02-04T01:04:12;186.40;;;28.20;;
69532;SDS011;56729;52.036;5.332;2024-02-04T01:05:14;140.05;;;25.48;;
69532;SDS011;56729;52.036;5.332;2024-02-04T01:06:16;142.27;;;26.58;;
69532;SDS011;56729;52.036;5.332;2024-02-04T01:07:18;162.15;;;26.80;;
69532;SDS011;56729;52.036;5.332;2024-02-04T01:08:21;52.83;;;19.10;;
69532;SDS011;56729;52.036;5.332;2024-02-04T01:09:23;180.63;;;27.85;;
69532;SDS011;56729;52.036;5.332;2024-02-04T01:10:25;70.38;;;21.42;;
69532;SDS011;56729;52.036;5.332;2024-02-04T01:11:27;44.55;;;16.88;;
69532;SDS011;56729;52.036;5.332;2024-02-04T01:12:30;126.65;;;23.48;;
69532;SDS011;56729;52.036;5.332;2024-02-04T01:13:32;69.17;;;16.97;;
69532;SDS011;56729;52.036;5.332;2024-02-04T01:14:34;97.90;;;20.98;;
69532;SDS011;56729;52.036;5.332;2024-02-04T01:15:36;70.72;;;18.58;;
69532;SDS011;56729;52.036;5.332;2024-02-04T01:16:38;117.97;;;22.58;;
69532;SDS011;56729;52.036;5.332;2024-02-04T01:17:40;120.80;;;22.30;;
69532;SDS011;56729;52.036;5.332;2024-02-04T01:18:42;55.15;;;16.80;;
69532;SDS011;56729;52.036;5.332;2024-02-04T01:19:44;108.50;;;21.20;;
69532;SDS011;56729;52.036;5.332;2024-02-04T01:20:46;151.13;;;22.80;;
69532;SDS011;56729;52.036;5.332;2024-02-04T01:21:49;63.93;;;18.93;;
69532;SDS011;56729;52.036;5.332;2024-02-04T01:22:51;68.13;;;17.60;;
69532;SDS011;56729;52.036;5.332;2024-02-04T01:23:53;114.93;;;27.92;;
69532;SDS011;56729;52.036;5.332;2024-02-04T01:24:58;123.95;;;26.52;;
69532;SDS011;56729;52.036;5.332;2024-02-04T01:26:01;119.22;;;22.58;;
69532;SDS011;56729;52.036;5.332;2024-02-04T01:27:03;174.75;;;29.05;;
69532;SDS011;56729;52.036;5.332;2024-02-04T01:28:05;173.23;;;29.63;;
69532;SDS011;56729;52.036;5.332;2024-02-04T01:29:07;166.48;;;25.30;;
69532;SDS011;56729;52.036;5.332;2024-02-04T01:30:10;69.72;;;20.58;;
69532;SDS011;56729;52.036;5.332;2024-02-04T01:31:13;141.50;;;23.70;;
69532;SDS011;56729;52.036;5.332;2024-02-04T01:32:15;140.13;;;21.55;;
69532;SDS011;56729;52.036;5.332;2024-02-04T01:33:17;83.70;;;19.42;;
69532;SDS011;56729;52.036;5.332;2024-02-04T01:34:19;120.70;;;21.80;;
69532;SDS011;56729;52.036;5.332;2024-02-04T01:35:22;63.75;;;16.42;;
69532;SDS011;56729;52.036;5.332;2024-02-04T01:36:24;110.45;;;19.63;;
69532;SDS011;56729;52.036;5.332;2024-02-04T01:37:26;115.40;;;21.08;;
69532;SDS011;56729;52.036;5.332;2024-02-04T01:38:28;57.38;;;16.35;;
69532;SDS011;56729;52.036;5.332;2024-02-04T01:39:30;135.52;;;20.95;;
69532;SDS011;56729;52.036;5.332;2024-02-04T01:40:32;133.43;;;21.23;;
69532;SDS011;56729;52.036;5.332;2024-02-04T01:41:34;144.95;;;21.83;;
69532;SDS011;56729;52.036;5.332;2024-02-04T01:42:36;108.50;;;18.80;;
69532;SDS011;56729;52.036;5.332;2024-02-04T01:43:39;116.28;;;20.10;;
69532;SDS011;56729;52.036;5.332;2024-02-04T01:44:41;160.05;;;23.30;;
69532;SDS011;56729;52.036;5.332;2024-02-04T01:45:44;124.47;;;21.55;;
69532;SDS011;56729;52.036;5.332;2024-02-04T01:46:47;147.43;;;24.65;;
69532;SDS011;56729;52.036;5.332;2024-02-04T01:47:49;182.95;;;24.13;;
69532;SDS011;56729;52.036;5.332;2024-02-04T01:48:51;120.60;;;30.55;;
69532;SDS011;56729;52.036;5.332;2024-02-04T01:49:53;96.43;;;21.42;;
69532;SDS011;56729;52.036;5.332;2024-02-04T01:50:56;79.60;;;20.40;;
69532;SDS011;56729;52.036;5.332;2024-02-04T01:52:00;159.07;;;25.08;;
69532;SDS011;56729;52.036;5.332;2024-02-04T01:53:04;86.97;;;20.70;;
69532;SDS011;56729;52.036;5.332;2024-02-04T01:54:06;113.65;;;23.67;;
69532;SDS011;56729;52.036;5.332;2024-02-04T01:55:09;173.32;;;24.92;;
69532;SDS011;56729;52.036;5.332;2024-02-04T01:56:13;64.32;;;18.80;;
69532;SDS011;56729;52.036;5.332;2024-02-04T01:57:16;126.22;;;21.00;;
69532;SDS011;56729;52.036;5.332;2024-02-04T01:58:18;79.23;;;20.17;;
69532;SDS011;56729;52.036;5.332;2024-02-04T01:59:20;79.60;;;19.67;;
69532;SDS011;56729;52.036;5.332;2024-02-04T02:00:29;132.45;;;20.60;;
69532;SDS011;56729;52.036;5.332;2024-02-04T02:01:32;88.85;;;20.48;;
69532;SDS011;56729;52.036;5.332;2024-02-04T02:02:39;181.52;;;27.50;;
69532;SDS011;56729;52.036;5.332;2024-02-04T02:03:42;120.70;;;22.85;;
69532;SDS011;56729;52.036;5.332;2024-02-04T02:04:44;55.00;;;18.90;;
69532;SDS011;56729;52.036;5.332;2024-02-04T02:05:48;177.63;;;25.08;;
69532;SDS011;56729;52.036;5.332;2024-02-04T02:06:54;104.15;;;25.70;;
69532;SDS011;56729;52.036;5.332;2024-02-04T02:07:56;133.40;;;25.67;;
69532;SDS011;56729;52.036;5.332;2024-02-04T02:08:59;224.38;;;32.80;;
69532;SDS011;56729;52.036;5.332;2024-02-04T02:10:04;138.98;;;21.48;;
69532;SDS011;56729;52.036;5.332;2024-02-04T02:11:11;102.30;;;18.92;;
69532;SDS011;56729;52.036;5.332;2024-02-04T02:12:18;102.72;;;25.85;;
69532;SDS011;56729;52.036;5.332;2024-02-04T02:13:24;129.50;;;23.05;;
69532;SDS011;56729;52.036;5.332;2024-02-04T02:14:32;117.45;;;22.40;;
69532;SDS011;56729;52.036;5.332;2024-02-04T02:15:40;100.50;;;19.80;;
69532;SDS011;56729;52.036;5.332;2024-02-04T02:16:46;87.90;;;20.38;;
69532;SDS011;56729;52.036;5.332;2024-02-04T02:18:04;143.38;;;23.30;;
69532;SDS011;56729;52.036;5.332;2024-02-04T02:23:36;106.72;;;23.75;;
69532;SDS011;56729;52.036;5.332;2024-02-04T02:25:00;112.88;;;24.45;;
69532;SDS011;56729;52.036;5.332;2024-02-04T02:26:06;93.35;;;23.80;;
69532;SDS011;56729;52.036;5.332;2024-02-04T02:27:09;89.38;;;22.35;;
69532;SDS011;56729;52.036;5.332;2024-02-04T02:28:11;189.48;;;35.25;;
69532;SDS011;56729;52.036;5.332;2024-02-04T02:29:13;122.63;;;24.05;;
69532;SDS011;56729;52.036;5.332;2024-02-04T02:30:16;157.07;;;26.67;;
69532;SDS011;56729;52.036;5.332;2024-02-04T02:31:19;189.60;;;29.60;;
69532;SDS011;56729;52.036;5.332;2024-02-04T02:32:35;142.95;;;29.33;;
69532;SDS011;56729;52.036;5.332;2024-02-04T02:33:37;126.72;;;30.20;;
69532;SDS011;56729;52.036;5.332;2024-02-04T02:34:39;76.00;;;22.92;;
69532;SDS011;56729;52.036;5.332;2024-02-04T02:35:43;164.55;;;27.70;;
69532;SDS011;56729;52.036;5.332;2024-02-04T02:36:54;171.68;;;35.83;;
69532;SDS011;56729;52.036;5.332;2024-02-04T02:40:07;73.60;;;23.67;;
69532;SDS011;56729;52.036;5.332;2024-02-04T02:41:09;70.65;;;20.52;;
69532;SDS011;56729;52.036;5.332;2024-02-04T02:42:14;121.32;;;24.90;;
69532;SDS011;56729;52.036;5.332;2024-02-04T02:43:18;151.37;;;26.23;;
69532;SDS011;56729;52.036;5.332;2024-02-04T02:44:20;141.25;;;24.83;;
69532;SDS011;56729;52.036;5.332;2024-02-04T02:45:23;102.40;;;24.73;;
69532;SDS011;56729;52.036;5.332;2024-02-04T02:46:27;78.07;;;22.33;;
69532;SDS011;56729;52.036;5.332;2024-02-04T02:47:30;171.00;;;28.08;;
69532;SDS011;56729;52.036;5.332;2024-02-04T02:48:33;108.80;;;25.58;;
69532;SDS011;56729;52.036;5.332;2024-02-04T02:49:35;84.93;;;26.15;;
69532;SDS011;56729;52.036;5.332;2024-02-04T02:50:38;130.98;;;28.00;;
69532;SDS011;56729;52.036;5.332;2024-02-04T02:51:40;122.53;;;24.73;;
69532;SDS011;56729;52.036;5.332;2024-02-04T02:52:42;86.10;;;23.13;;
69532;SDS011;56729;52.036;5.332;2024-02-04T02:53:44;58.33;;;21.70;;
69532;SDS011;56729;52.036;5.332;2024-02-04T02:54:46;101.95;;;21.67;;
69532;SDS011;56729;52.036;5.332;2024-02-04T02:55:48;117.45;;;21.83;;
69532;SDS011;56729;52.036;5.332;2024-02-04T02:56:51;56.42;;;19.90;;
69532;SDS011;56729;52.036;5.332;2024-02-04T02:57:53;125.20;;;23.35;;
69532;SDS011;56729;52.036;5.332;2024-02-04T02:58:55;106.30;;;21.75;;
69532;SDS011;56729;52.036;5.332;2024-02-04T02:59:57;103.80;;;22.33;;
69532;SDS011;56729;52.036;5.332;2024-02-04T03:01:00;90.50;;;20.08;;
69532;SDS011;56729;52.036;5.332;2024-02-04T03:02:03;81.05;;;18.77;;
69532;SDS011;56729;52.036;5.332;2024-02-04T03:03:05;128.27;;;23.97;;
69532;SDS011;56729;52.036;5.332;2024-02-04T03:04:08;74.97;;;19.13;;
69532;SDS011;56729;52.036;5.332;2024-02-04T03:05:10;117.07;;;21.42;;
69532;SDS011;56729;52.036;5.332;2024-02-04T03:06:13;69.55;;;19.40;;
69532;SDS011;56729;52.036;5.332;2024-02-04T03:07:15;162.30;;;24.15;;
69532;SDS011;56729;52.036;5.332;2024-02-04T03:08:17;120.95;;;25.15;;
69532;SDS011;56729;52.036;5.332;2024-02-04T03:09:20;102.07;;;20.17;;
69532;SDS011;56729;52.036;5.332;2024-02-04T03:10:22;39.15;;;16.85;;
69532;SDS011;56729;52.036;5.332;2024-02-04T03:11:24;66.25;;;16.88;;
69532;SDS011;56729;52.036;5.332;2024-02-04T03:12:27;66.80;;;19.20;;
69532;SDS011;56729;52.036;5.332;2024-02-04T03:13:29;59.07;;;15.83;;
69532;SDS011;56729;52.036;5.332;2024-02-04T03:14:31;95.22;;;19.70;;
69532;SDS011;56729;52.036;5.332;2024-02-04T03:15:34;65.25;;;15.90;;
69532;SDS011;56729;52.036;5.332;2024-02-04T03:16:37;93.68;;;22.27;;
69532;SDS011;56729;52.036;5.332;2024-02-04T03:17:39;76.45;;;16.55;;
69532;SDS011;56729;52.036;5.332;2024-02-04T03:18:41;86.55;;;25.60;;
69532;SDS011;56729;52.036;5.332;2024-02-04T03:19:44;101.32;;;17.65;;
69532;SDS011;56729;52.036;5.332;2024-02-04T03:20:48;92.80;;;19.08;;
69532;SDS011;56729;52.036;5.332;2024-02-04T03:21:50;103.35;;;18.02;;
69532;SDS011;56729;52.036;5.332;2024-02-04T03:22:54;83.17;;;15.73;;
69532;SDS011;56729;52.036;5.332;2024-02-04T03:23:57;40.30;;;14.20;;
69532;SDS011;56729;52.036;5.332;2024-02-04T03:25:00;39.30;;;13.30;;
69532;SDS011;56729;52.036;5.332;2024-02-04T03:26:02;77.32;;;15.70;;
69532;SDS011;56729;52.036;5.332;2024-02-04T03:27:04;57.38;;;14.85;;
69532;SDS011;56729;52.036;5.332;2024-02-04T03:28:07;68.82;;;15.60;;
69532;SDS011;56729;52.036;5.332;2024-02-04T03:29:09;59.60;;;14.85;;
69532;SDS011;56729;52.036;5.332;2024-02-04T03:30:11;83.10;;;17.83;;
69532;SDS011;56729;52.036;5.332;2024-02-04T03:31:23;114.10;;;18.27;;
69532;SDS011;56729;52.036;5.332;2024-02-04T03:32:25;85.90;;;15.88;;
69532;SDS011;56729;52.036;5.332;2024-02-04T03:33:28;103.30;;;17.83;;
69532;SDS011;56729;52.036;5.332;2024-02-04T03:34:30;78.38;;;17.80;;
69532;SDS011;56729;52.036;5.332;2024-02-04T03:35:32;114.63;;;19.27;;
69532;SDS011;56729;52.036;5.332;2024-02-04T03:36:38;84.45;;;17.08;;
69532;SDS011;56729;52.036;5.332;2024-02-04T03:37:40;51.25;;;16.98;;
69532;SDS011;56729;52.036;5.332;2024-02-04T03:38:42;45.72;;;18.55;;
69532;SDS011;56729;52.036;5.332;2024-02-04T03:39:44;60.10;;;23.33;;
69532;SDS011;56729;52.036;5.332;2024-02-04T03:40:47;88.65;;;17.95;;
69532;SDS011;56729;52.036;5.332;2024-02-04T03:41:50;84.93;;;16.13;;
69532;SDS011;56729;52.036;5.332;2024-02-04T03:42:53;93.43;;;16.50;;
69532;SDS011;56729;52.036;5.332;2024-02-04T03:43:55;126.78;;;19.55;;
69532;SDS011;56729;52.036;5.332;2024-02-04T03:45:00;111.20;;;17.30;;
69532;SDS011;56729;52.036;5.332;2024-02-04T03:46:04;109.18;;;17.45;;
69532;SDS011;56729;52.036;5.332;2024-02-04T03:47:06;59.88;;;15.70;;
69532;SDS011;56729;52.036;5.332;2024-02-04T03:48:08;152.50;;;19.75;;
69532;SDS011;56729;52.036;5.332;2024-02-04T03:49:10;57.80;;;16.13;;
69532;SDS011;56729;52.036;5.332;2024-02-04T03:50:13;46.67;;;14.98;;
69532;SDS011;56729;52.036;5.332;2024-02-04T03:51:18;69.50;;;14.55;;
69532;SDS011;56729;52.036;5.332;2024-02-04T03:52:21;84.23;;;15.90;;
69532;SDS011;56729;52.036;5.332;2024-02-04T03:53:23;57.38;;;15.88;;
69532;SDS011;56729;52.036;5.332;2024-02-04T03:54:26;83.45;;;17.92;;
69532;SDS011;56729;52.036;5.332;2024-02-04T03:55:30;84.13;;;16.63;;
69532;SDS011;56729;52.036;5.332;2024-02-04T03:56:32;133.98;;;18.80;;
69532;SDS011;56729;52.036;5.332;2024-02-04T03:57:34;60.40;;;13.55;;
69532;SDS011;56729;52.036;5.332;2024-02-04T03:58:36;72.47;;;16.27;;
69532;SDS011;56729;52.036;5.332;2024-02-04T03:59:38;76.30;;;14.57;;
69532;SDS011;56729;52.036;5.332;2024-02-04T04:00:40;52.25;;;17.67;;
69532;SDS011;56729;52.036;5.332;2024-02-04T04:01:49;72.78;;;13.55;;
69532;SDS011;56729;52.036;5.332;2024-02-04T04:02:52;66.30;;;19.90;;
69532;SDS011;56729;52.036;5.332;2024-02-04T04:03:54;52.97;;;13.13;;
69532;SDS011;56729;52.036;5.332;2024-02-04T04:04:56;75.15;;;17.48;;
69532;SDS011;56729;52.036;5.332;2024-02-04T04:05:58;48.17;;;12.27;;
69532;SDS011;56729;52.036;5.332;2024-02-04T04:07:00;115.97;;;15.52;;
69532;SDS011;56729;52.036;5.332;2024-02-04T04:08:03;76.10;;;13.82;;
69532;SDS011;56729;52.036;5.332;2024-02-04T04:09:05;81.65;;;14.65;;
69532;SDS011;56729;52.036;5.332;2024-02-04T04:10:07;51.60;;;13.10;;
69532;SDS011;56729;52.036;5.332;2024-02-04T04:11:10;44.28;;;11.27;;
69532;SDS011;56729;52.036;5.332;2024-02-04T04:12:12;92.05;;;16.17;;
69532;SDS011;56729;52.036;5.332;2024-02-04T04:13:15;105.63;;;14.38;;
69532;SDS011;56729;52.036;5.332;2024-02-04T04:14:17;60.65;;;13.00;;
69532;SDS011;56729;52.036;5.332;2024-02-04T04:15:19;38.05;;;13.07;;
69532;SDS011;56729;52.036;5.332;2024-02-04T04:16:21;65.40;;;12.55;;
69532;SDS011;56729;52.036;5.332;2024-02-04T04:17:24;66.55;;;13.10;;
69532;SDS011;56729;52.036;5.332;2024-02-04T04:18:25;94.68;;;15.52;;
69532;SDS011;56729;52.036;5.332;2024-02-04T04:19:28;64.00;;;13.38;;
69532;SDS011;56729;52.036;5.332;2024-02-04T04:20:30;90.93;;;14.53;;
69532;SDS011;56729;52.036;5.332;2024-02-04T04:21:32;42.88;;;9.93;;
69532;SDS011;56729;52.036;5.332;2024-02-04T04:22:34;71.85;;;12.10;;
69532;SDS011;56729;52.036;5.332;2024-02-04T04:23:36;68.90;;;15.70;;
69532;SDS011;56729;52.036;5.332;2024-02-04T04:24:38;88.00;;;15.52;;
69532;SDS011;56729;52.036;5.332;2024-02-04T04:25:42;45.13;;;10.32;;
69532;SDS011;56729;52.036;5.332;2024-02-04T04:26:45;38.53;;;10.55;;
69532;SDS011;56729;52.036;5.332;2024-02-04T04:27:47;49.60;;;11.38;;
69532;SDS011;56729;52.036;5.332;2024-02-04T04:28:49;45.80;;;10.82;;
69532;SDS011;56729;52.036;5.332;2024-02-04T04:29:52;32.00;;;8.97;;
69532;SDS011;56729;52.036;5.332;2024-02-04T04:30:54;61.72;;;13.50;;
69532;SDS011;56729;52.036;5.332;2024-02-04T04:31:56;35.67;;;12.02;;
69532;SDS011;56729;52.036;5.332;2024-02-04T04:32:58;36.95;;;11.07;;
69532;SDS011;56729;52.036;5.332;2024-02-04T04:34:00;48.13;;;10.18;;
69532;SDS011;56729;52.036;5.332;2024-02-04T04:35:03;31.15;;;8.77;;
69532;SDS011;56729;52.036;5.332;2024-02-04T04:36:05;67.97;;;13.60;;
69532;SDS011;56729;52.036;5.332;2024-02-04T04:37:08;43.10;;;10.88;;
69532;SDS011;56729;52.036;5.332;2024-02-04T04:38:09;41.80;;;9.45;;
69532;SDS011;56729;52.036;5.332;2024-02-04T04:39:11;95.82;;;15.57;;
69532;SDS011;56729;52.036;5.332;2024-02-04T04:40:14;45.10;;;10.63;;
69532;SDS011;56729;52.036;5.332;2024-02-04T04:41:16;40.50;;;9.80;;
69532;SDS011;56729;52.036;5.332;2024-02-04T04:42:18;104.47;;;16.73;;
69532;SDS011;56729;52.036;5.332;2024-02-04T04:43:20;52.15;;;10.77;;
69532;SDS011;56729;52.036;5.332;2024-02-04T04:44:22;87.97;;;16.27;;
69532;SDS011;56729;52.036;5.332;2024-02-04T04:45:24;89.00;;;14.75;;
69532;SDS011;56729;52.036;5.332;2024-02-04T04:46:26;107.75;;;14.95;;
69532;SDS011;56729;52.036;5.332;2024-02-04T04:47:28;83.33;;;13.10;;
69532;SDS011;56729;52.036;5.332;2024-02-04T04:48:30;47.95;;;11.68;;
69532;SDS011;56729;52.036;5.332;2024-02-04T04:49:32;43.33;;;11.15;;
69532;SDS011;56729;52.036;5.332;2024-02-04T04:50:35;45.05;;;11.27;;
69532;SDS011;56729;52.036;5.332;2024-02-04T04:51:37;62.63;;;13.63;;
69532;SDS011;56729;52.036;5.332;2024-02-04T04:52:39;90.20;;;18.98;;
69532;SDS011;56729;52.036;5.332;2024-02-04T04:53:41;106.55;;;13.98;;
69532;SDS011;56729;52.036;5.332;2024-02-04T04:54:43;93.25;;;16.77;;
69532;SDS011;56729;52.036;5.332;2024-02-04T04:55:45;76.68;;;15.13;;
69532;SDS011;56729;52.036;5.332;2024-02-04T04:56:47;68.97;;;16.70;;
69532;SDS011;56729;52.036;5.332;2024-02-04T04:57:49;46.03;;;14.40;;
69532;SDS011;56729;52.036;5.332;2024-02-04T04:58:53;92.82;;;15.93;;
69532;SDS011;56729;52.036;5.332;2024-02-04T04:59:55;64.70;;;12.52;;
69532;SDS011;56729;52.036;5.332;2024-02-04T05:01:00;52.47;;;13.20;;
69532;SDS011;56729;52.036;5.332;2024-02-04T05:02:02;57.42;;;13.43;;
69532;SDS011;56729;52.036;5.332;2024-02-04T05:03:04;59.97;;;13.23;;
69532;SDS011;56729;52.036;5.332;2024-02-04T05:04:06;85.63;;;14.93;;
69532;SDS011;56729;52.036;5.332;2024-02-04T05:05:13;69.07;;;14.15;;
69532;SDS011;56729;52.036;5.332;2024-02-04T05:06:15;81.78;;;14.45;;
69532;SDS011;56729;52.036;5.332;2024-02-04T05:07:17;99.07;;;15.17;;
69532;SDS011;56729;52.036;5.332;2024-02-04T05:08:20;113.15;;;16.38;;
69532;SDS011;56729;52.036;5.332;2024-02-04T05:09:22;55.85;;;12.40;;
69532;SDS011;56729;52.036;5.332;2024-02-04T05:10:24;49.65;;;13.23;;
69532;SDS011;56729;52.036;5.332;2024-02-04T05:11:26;44.80;;;11.85;;
69532;SDS011;56729;52.036;5.332;2024-02-04T05:12:28;59.72;;;14.98;;
69532;SDS011;56729;52.036;5.332;2024-02-04T05:13:30;45.20;;;12.32;;
69532;SDS011;56729;52.036;5.332;2024-02-04T05:14:32;67.75;;;16.67;;
69532;SDS011;56729;52.036;5.332;2024-02-04T05:15:34;65.07;;;15.10;;
69532;SDS011;56729;52.036;5.332;2024-02-04T05:16:36;40.77;;;11.27;;
69532;SDS011;56729;52.036;5.332;2024-02-04T05:17:38;76.47;;;26.20;;
69532;SDS011;56729;52.036;5.332;2024-02-04T05:18:40;146.57;;;19.00;;
69532;SDS011;56729;52.036;5.332;2024-02-04T05:19:43;179.32;;;30.55;;
69532;SDS011;56729;52.036;5.332;2024-02-04T05:20:45;49.28;;;12.90;;
69532;SDS011;56729;52.036;5.332;2024-02-04T05:21:47;77.43;;;16.85;;
69532;SDS011;56729;52.036;5.332;2024-02-04T05:22:49;107.20;;;16.10;;
69532;SDS011;56729;52.036;5.332;2024-02-04T05:23:51;64.00;;;14.50;;
69532;SDS011;56729;52.036;5.332;2024-02-04T05:24:53;97.45;;;14.98;;
69532;SDS011;56729;52.036;5.332;2024-02-04T05:25:55;56.53;;;16.17;;
69532;SDS011;56729;52.036;5.332;2024-02-04T05:26:57;48.45;;;15.95;;
69532;SDS011;56729;52.036;5.332;2024-02-04T05:28:00;46.22;;;16.35;;
69532;SDS011;56729;52.036;5.332;2024-02-04T05:29:02;52.85;;;12.25;;
69532;SDS011;56729;52.036;5.332;2024-02-04T05:30:04;103.35;;;17.75;;
69532;SDS011;56729;52.036;5.332;2024-02-04T05:31:07;119.25;;;20.42;;
69532;SDS011;56729;52.036;5.332;2024-02-04T05:32:09;83.28;;;16.35;;
69532;SDS011;56729;52.036;5.332;2024-02-04T05:33:14;59.30;;;16.20;;
69532;SDS011;56729;52.036;5.332;2024-02-04T05:34:16;104.88;;;22.33;;
69532;SDS011;56729;52.036;5.332;2024-02-04T05:35:18;60.38;;;16.75;;
69532;SDS011;56729;52.036;5.332;2024-02-04T05:36:20;40.50;;;14.07;;
69532;SDS011;56729;52.036;5.332;2024-02-04T05:37:22;99.65;;;15.75;;
69532;SDS011;56729;52.036;5.332;2024-02-04T05:38:24;79.47;;;15.57;;
69532;SDS011;56729;52.036;5.332;2024-02-04T05:39:27;126.90;;;19.93;;
69532;SDS011;56729;52.036;5.332;2024-02-04T05:40:29;95.10;;;15.40;;
69532;SDS011;56729;52.036;5.332;2024-02-04T05:41:32;39.38;;;12.00;;
69532;SDS011;56729;52.036;5.332;2024-02-04T05:42:34;44.55;;;14.80;;
69532;SDS011;56729;52.036;5.332;2024-02-04T05:43:38;45.10;;;13.52;;
69532;SDS011;56729;52.036;5.332;2024-02-04T05:44:40;102.30;;;18.52;;
69532;SDS011;56729;52.036;5.332;2024-02-04T05:45:42;88.63;;;18.52;;
69532;SDS011;56729;52.036;5.332;2024-02-04T05:46:44;115.22;;;16.40;;
69532;SDS011;56729;52.036;5.332;2024-02-04T05:47:47;177.68;;;22.02;;
69532;SDS011;56729;52.036;5.332;2024-02-04T05:48:49;80.63;;;14.63;;
69532;SDS011;56729;52.036;5.332;2024-02-04T05:49:51;84.22;;;18.10;;
69532;SDS011;56729;52.036;5.332;2024-02-04T05:50:54;108.90;;;15.10;;
69532;SDS011;56729;52.036;5.332;2024-02-04T05:51:55;45.92;;;18.30;;
69532;SDS011;56729;52.036;5.332;2024-02-04T05:52:58;60.10;;;17.98;;
69532;SDS011;56729;52.036;5.332;2024-02-04T05:53:59;106.93;;;18.30;;
69532;SDS011;56729;52.036;5.332;2024-02-04T05:55:02;42.95;;;13.50;;
69532;SDS011;56729;52.036;5.332;2024-02-04T05:56:06;45.97;;;16.67;;
69532;SDS011;56729;52.036;5.332;2024-02-04T05:57:09;82.50;;;16.45;;
69532;SDS011;56729;52.036;5.332;2024-02-04T05:58:12;81.27;;;18.80;;
69532;SDS011;56729;52.036;5.332;2024-02-04T05:59:15;110.38;;;18.85;;
69532;SDS011;56729;52.036;5.332;2024-02-04T06:00:18;126.55;;;18.50;;
69532;SDS011;56729;52.036;5.332;2024-02-04T06:01:20;53.30;;;15.75;;
69532;SDS011;56729;52.036;5.332;2024-02-04T06:02:22;85.10;;;19.15;;
69532;SDS011;56729;52.036;5.332;2024-02-04T06:03:25;158.02;;;21.30;;
69532;SDS011;56729;52.036;5.332;2024-02-04T06:04:30;118.07;;;19.25;;
69532;SDS011;56729;52.036;5.332;2024-02-04T06:05:32;135.95;;;21.98;;
69532;SDS011;56729;52.036;5.332;2024-02-04T06:06:37;72.63;;;20.05;;
69532;SDS011;56729;52.036;5.332;2024-02-04T06:07:47;79.72;;;22.27;;
69532;SDS011;56729;52.036;5.332;2024-02-04T06:08:49;156.38;;;24.27;;
69532;SDS011;56729;52.036;5.332;2024-02-04T06:09:52;145.10;;;26.10;;
69532;SDS011;56729;52.036;5.332;2024-02-04T06:10:54;112.18;;;24.38;;
69532;SDS011;56729;52.036;5.332;2024-02-04T06:11:57;125.18;;;25.77;;